Iron Mountain, MI (49801)

7:01 PM CST on December 04, 2016 (GMT -0600)
East Kingsford, Aurora Bridge | | Change Station

Elev 1106 ft 45.79 °N, 88.08 °W | Updated 3 seconds ago

Light Snow
Light Snow Mist
29.8 °F
Feels Like 30 °F
N
0.0
Wind Variable Wind from ESE
Gusts 0.0 mph

Today
High -- | Low -- °F
--% Chance of Precip.
Yesterday
High -- | Low -- °F
Precip. -- in
Pressure 29.82 in
Visibility 1.2 miles
Clouds Scattered Clouds 800 ft
Overcast 1600 ft
Windchill 30 °F
Dew Point 25 °F
Humidity 83%
Rainfall 0.00 in
Snow Depth Not available.
7:17 AM 4:08 PM
Waxing Crescent, 27% visible
METAR KIMT 050054Z AUTO 15006KT 1 1/4SM -SN BR SCT008 OVC016 M01/M03 A2977 RMK AO2 SLP096 P0000 T10111033
Pressure 29.82 in
Visibility 1.2 miles
Clouds Scattered Clouds 800 ft
Overcast 1600 ft
Windchill 30 °F
Dew Point 25 °F
Humidity 83%
Rainfall 0.00 in
Snow Depth Not available.
7:17 AM 4:08 PM
Waxing Crescent, 27% visible
METAR KIMT 050054Z AUTO 15006KT 1 1/4SM -SN BR SCT008 OVC016 M01/M03 A2977 RMK AO2 SLP096 P0000 T10111033

10-Day Weather Forecast

Almanac

Astronomy

Dec. 04, 2016 Rise Set
Actual Time
Civil Twilight
Nautical Twilight
Astronomical Twilight
Moon
Length of Visible Light
Length of Day
Tomorrow will be .
, % of the Moon is Illuminated

Today's Extremes

State Highs State Lows

Community

WunderPhotos

Upload Photos

1,955,733 photos uploaded!

WunderBlog® & News

Nearby

Air Quality

  Air Quality AQ Index Pollutant
Not available.

Snow Depth

Station Depth Elevation

Earthquake Activity

City Distance Mag. Time & Date
Minimum magnitude displayed is 2.5.

Coastal Water Temperatures

Place Temperature

Stations

Nearby Weather Stations

Station Location Temp. Windchill Dew Point Humidity Wind Precip. Elev Updated Type
                   

Watches & Warnings

There are currently no watches in effect.